createdAt,value
2017-12-02T00:02:20.915Z,49.92
2017-12-02T00:04:47.747Z,52.88
2017-12-02T00:07:15.664Z,54.03
2017-12-02T00:09:42.575Z,44.80
2017-12-02T00:12:10.630Z,60.42
2017-12-02T00:14:38.059Z,43.63
2017-12-02T00:17:05.386Z,43.47
2017-12-02T00:19:32.719Z,51.22
2017-12-02T00:21:59.983Z,47.67
2017-12-02T00:24:26.854Z,50.60
2017-12-02T00:26:53.756Z,46.45
2017-12-02T00:29:20.592Z,49.67
2017-12-02T00:31:47.453Z,48.20
2017-12-02T00:34:14.327Z,59.53
2017-12-02T00:36:41.811Z,51.20
2017-12-02T00:39:08.938Z,51.67
2017-12-02T00:41:35.844Z,47.15
2017-12-02T00:44:02.712Z,61.72
2017-12-02T00:46:29.572Z,64.47
2017-12-02T00:48:56.595Z,51.22
2017-12-02T00:51:23.437Z,48.38
2017-12-02T00:53:50.988Z,79.95
2017-12-02T00:56:17.855Z,53.95
2017-12-02T00:58:44.758Z,55.00
2017-12-02T01:01:12.303Z,53.60
2017-12-02T01:03:39.155Z,69.57
2017-12-02T01:06:06.097Z,59.25
2017-12-02T01:08:33.004Z,50.67
2017-12-02T01:11:00.644Z,52.72
2017-12-02T01:13:28.132Z,56.35
2017-12-02T01:15:55.164Z,72.10
2017-12-02T01:18:22.243Z,62.50
2017-12-02T01:20:49.129Z,51.28
2017-12-02T01:23:16.025Z,53.58
2017-12-02T01:25:43.655Z,55.42
2017-12-02T01:28:10.553Z,53.10
2017-12-02T01:30:37.367Z,57.72
2017-12-02T01:33:04.246Z,54.03
2017-12-02T01:35:31.079Z,48.75
2017-12-02T01:37:57.900Z,50.30
2017-12-02T01:40:25.456Z,66.75
2017-12-02T01:42:52.279Z,58.45
2017-12-02T01:45:19.123Z,50.78
2017-12-02T01:47:45.960Z,56.00
2017-12-02T01:50:12.790Z,49.90
2017-12-02T01:52:39.612Z,49.45
2017-12-02T01:55:06.443Z,48.03
2017-12-02T01:57:34.033Z,49.13
2017-12-02T02:00:01.622Z,47.67
2017-12-02T02:02:28.564Z,51.95
2017-12-02T02:04:56.122Z,51.30
2017-12-02T02:07:22.936Z,54.15
2017-12-02T02:09:49.823Z,49.83
2017-12-02T02:12:16.723Z,54.83
2017-12-02T02:14:44.367Z,56.00
2017-12-02T02:17:11.272Z,52.17
2017-12-02T02:19:38.877Z,46.42
2017-12-02T02:22:05.796Z,56.00
2017-12-02T02:24:32.743Z,57.20
2017-12-02T02:26:59.628Z,54.75
2017-12-02T02:29:26.472Z,55.30
2017-12-02T02:31:53.344Z,49.45
2017-12-02T02:34:20.204Z,51.17
2017-12-02T02:36:47.061Z,54.15
2017-12-02T02:39:13.897Z,50.90
2017-12-02T02:41:40.723Z,47.85
2017-12-02T02:44:07.627Z,44.22
2017-12-02T02:46:34.511Z,50.33
2017-12-02T02:49:01.361Z,50.60
2017-12-02T02:51:28.199Z,53.33
2017-12-02T02:53:55.051Z,56.37
2017-12-02T02:56:21.909Z,52.70
2017-12-02T02:58:48.788Z,54.55
2017-12-02T03:01:15.638Z,52.60
2017-12-02T03:03:42.460Z,50.15
2017-12-02T03:06:10.048Z,50.08
2017-12-02T03:08:36.923Z,49.65
2017-12-02T03:11:03.904Z,53.38
2017-12-02T03:13:30.846Z,54.92
2017-12-02T03:15:57.788Z,50.12
2017-12-02T03:18:25.450Z,48.13
2017-12-02T03:20:52.388Z,54.22
2017-12-02T03:23:19.289Z,53.58
2017-12-02T03:25:46.941Z,51.05
2017-12-02T03:28:13.903Z,51.60
2017-12-02T03:30:40.853Z,50.15
2017-12-02T03:33:07.780Z,47.70
2017-12-02T03:35:34.726Z,50.22
2017-12-02T03:38:02.417Z,51.80
2017-12-02T03:40:30.087Z,51.08
2017-12-02T03:42:57.808Z,49.35
2017-12-02T03:45:24.751Z,48.63
2017-12-02T03:47:51.743Z,51.63
2017-12-02T03:50:18.755Z,49.50
2017-12-02T03:52:46.406Z,50.75
2017-12-02T03:55:13.433Z,51.83
2017-12-02T03:57:40.356Z,47.78
2017-12-02T04:00:07.372Z,45.72
2017-12-02T04:02:34.265Z,49.38
2017-12-02T04:05:01.156Z,46.88
2017-12-02T04:07:28.876Z,44.70
2017-12-02T04:09:55.787Z,46.33
2017-12-02T04:12:22.694Z,48.75
2017-12-02T04:14:49.882Z,48.83
2017-12-02T04:17:16.865Z,54.42
2017-12-02T04:19:43.829Z,58.40
2017-12-02T04:22:10.738Z,61.35
2017-12-02T04:24:37.651Z,60.60
2017-12-02T04:27:04.596Z,58.55
2017-12-02T04:29:32.292Z,54.90
2017-12-02T04:31:59.230Z,62.47
2017-12-02T04:34:26.196Z,59.38
2017-12-02T04:36:53.091Z,54.55
2017-12-02T04:39:20.017Z,57.25
2017-12-02T04:41:46.943Z,57.25
2017-12-02T04:44:14.603Z,56.05
2017-12-02T04:46:41.483Z,55.50
2017-12-02T04:49:08.391Z,52.72
2017-12-02T04:51:35.302Z,56.40
2017-12-02T04:54:02.227Z,55.05
2017-12-02T04:56:29.145Z,57.13
2017-12-02T04:58:56.812Z,58.75
2017-12-02T05:01:24.542Z,61.88
2017-12-02T05:03:51.467Z,60.30
2017-12-02T05:06:19.124Z,66.05
2017-12-02T05:08:46.063Z,61.88
2017-12-02T05:11:12.977Z,58.30
2017-12-02T05:13:40.660Z,62.88
2017-12-02T05:16:07.576Z,57.42
2017-12-02T05:18:34.481Z,61.53
2017-12-02T05:21:02.140Z,60.65
2017-12-02T05:23:29.106Z,65.97
2017-12-02T05:25:56.022Z,64.80
2017-12-02T05:28:22.939Z,73.95
2017-12-02T05:30:50.579Z,94.15
2017-12-02T05:33:17.531Z,82.93
2017-12-02T05:35:44.435Z,72.22
2017-12-02T05:38:11.356Z,59.53
2017-12-02T05:40:38.260Z,61.37
2017-12-02T05:43:05.187Z,56.95
2017-12-02T05:45:32.105Z,55.22
2017-12-02T05:47:59.756Z,54.20
2017-12-02T05:50:26.700Z,53.28
2017-12-02T05:52:53.618Z,54.08
2017-12-02T05:55:20.495Z,53.42
2017-12-02T05:57:47.442Z,58.60
2017-12-02T06:00:14.390Z,58.40
2017-12-02T06:02:42.044Z,56.70
2017-12-02T06:05:08.948Z,55.67
2017-12-02T06:07:35.844Z,53.42
2017-12-02T06:10:02.851Z,58.58
2017-12-02T06:12:29.832Z,56.35
2017-12-02T06:14:56.726Z,54.70
2017-12-02T06:17:23.671Z,57.20
2017-12-02T06:19:50.568Z,58.80
2017-12-02T06:22:17.454Z,57.10
2017-12-02T06:24:44.382Z,60.40
2017-12-02T06:27:11.290Z,60.05
2017-12-02T06:29:38.188Z,56.60
2017-12-02T06:32:05.111Z,60.00
2017-12-02T06:34:32.035Z,57.53
2017-12-02T06:36:58.936Z,59.65
2017-12-02T06:39:25.862Z,59.08
2017-12-02T06:41:52.779Z,59.45
2017-12-02T06:44:20.463Z,55.17
2017-12-02T06:46:48.137Z,54.85
2017-12-02T06:49:15.833Z,56.55
2017-12-02T06:51:42.831Z,53.65
2017-12-02T06:54:10.483Z,57.88
2017-12-02T06:56:37.453Z,56.22
2017-12-02T06:59:04.407Z,54.58
2017-12-02T07:01:31.508Z,55.47
2017-12-02T07:03:58.502Z,53.55
2017-12-02T07:06:25.505Z,51.95
2017-12-02T07:08:52.506Z,57.33
2017-12-02T07:11:19.496Z,56.25
2017-12-02T07:13:46.570Z,52.58
2017-12-02T07:16:13.596Z,51.70
2017-12-02T07:18:40.516Z,56.90
2017-12-02T07:21:08.220Z,53.83
2017-12-02T07:23:35.166Z,54.55
2017-12-02T07:26:02.192Z,51.83
2017-12-02T07:28:29.150Z,51.70
2017-12-02T07:30:56.063Z,53.83
2017-12-02T07:33:22.946Z,53.42
2017-12-02T07:35:49.828Z,54.05
2017-12-02T07:38:16.768Z,55.83
2017-12-02T07:40:43.661Z,56.05
2017-12-02T07:43:10.531Z,52.50
2017-12-02T07:45:37.803Z,53.50
2017-12-02T07:48:04.822Z,52.05
2017-12-02T07:50:31.783Z,56.13
2017-12-02T07:52:58.702Z,55.33
2017-12-02T07:55:25.656Z,53.03
2017-12-02T07:57:52.634Z,56.60
2017-12-02T08:00:19.602Z,56.05
2017-12-02T08:02:47.236Z,54.88
2017-12-02T08:05:14.148Z,53.15
2017-12-02T08:07:41.861Z,53.67
2017-12-02T08:10:08.746Z,67.68
2017-12-02T08:12:35.674Z,67.18
2017-12-02T08:15:02.571Z,65.47
2017-12-02T08:17:29.451Z,62.17
2017-12-02T08:19:56.344Z,55.63
2017-12-02T08:22:23.956Z,54.33
2017-12-02T08:24:50.847Z,54.33
2017-12-02T08:27:17.791Z,53.22
2017-12-02T08:29:44.699Z,57.08
2017-12-02T08:32:12.260Z,58.35
2017-12-02T08:34:39.185Z,58.08
2017-12-02T08:37:06.943Z,53.03
2017-12-02T08:39:33.840Z,55.35
2017-12-02T08:42:00.722Z,56.92
2017-12-02T08:44:28.385Z,54.72
2017-12-02T08:46:55.279Z,55.17
2017-12-02T08:49:22.161Z,55.55
2017-12-02T08:51:49.831Z,55.00
2017-12-02T08:54:16.717Z,59.38
2017-12-02T08:56:43.658Z,55.53
2017-12-02T08:59:10.569Z,57.75
2017-12-02T09:01:37.426Z,54.38
2017-12-02T09:04:05.598Z,57.00
2017-12-02T09:06:32.508Z,56.88
2017-12-02T09:08:59.395Z,53.40
2017-12-02T09:11:26.315Z,52.65
2017-12-02T09:13:53.203Z,51.35
2017-12-02T09:16:20.108Z,53.53
2017-12-02T09:18:47.132Z,53.72
2017-12-02T09:21:14.067Z,49.63
2017-12-02T09:23:41.472Z,50.03
2017-12-02T09:26:09.133Z,48.33
2017-12-02T09:28:36.001Z,46.28
2017-12-02T09:31:02.884Z,45.05
2017-12-02T09:33:30.574Z,44.17
2017-12-02T09:35:57.452Z,47.65
2017-12-02T09:38:24.363Z,47.13
2017-12-02T09:40:51.255Z,45.05
2017-12-02T09:43:18.916Z,46.80
2017-12-02T09:45:45.814Z,40.00
2017-12-02T09:48:12.717Z,42.70
2017-12-02T09:50:39.596Z,44.33
2017-12-02T09:53:06.522Z,43.97
2017-12-02T09:55:33.409Z,42.45
2017-12-02T09:58:00.333Z,43.63
2017-12-02T10:00:27.215Z,43.50
2017-12-02T10:02:54.083Z,45.60
2017-12-02T10:05:20.984Z,43.00
2017-12-02T10:07:47.920Z,46.03
2017-12-02T10:10:14.819Z,41.75
2017-12-02T10:12:42.449Z,40.47
2017-12-02T10:15:09.348Z,42.20
2017-12-02T10:17:36.211Z,40.08
2017-12-02T10:20:03.192Z,43.83
2017-12-02T10:22:30.883Z,43.45
2017-12-02T10:24:57.804Z,42.92
2017-12-02T10:27:24.718Z,43.53
2017-12-02T10:29:51.642Z,43.25
2017-12-02T10:32:18.527Z,40.25
2017-12-02T10:34:46.295Z,40.35
2017-12-02T10:37:13.266Z,39.65
2017-12-02T10:39:40.969Z,39.35
2017-12-02T10:42:07.920Z,43.03
2017-12-02T10:44:35.607Z,42.03
2017-12-02T10:47:02.523Z,44.53
2017-12-02T10:49:29.368Z,43.28
2017-12-02T10:51:56.251Z,44.65
2017-12-02T10:54:23.151Z,37.30
2017-12-02T10:56:50.780Z,32.95
2017-12-02T10:59:17.704Z,38.83
2017-12-02T11:01:44.564Z,41.50
2017-12-02T11:04:11.403Z,42.55
2017-12-02T11:06:38.984Z,56.00
2017-12-02T11:09:06.620Z,43.03
2017-12-02T11:11:33.518Z,41.70
2017-12-02T11:14:01.153Z,43.47
2017-12-02T11:16:27.996Z,42.75
2017-12-02T11:18:54.845Z,43.30
2017-12-02T11:21:21.694Z,40.20
2017-12-02T11:23:48.625Z,40.53
2017-12-02T11:26:15.462Z,40.55
2017-12-02T11:28:42.391Z,37.45
2017-12-02T11:31:09.267Z,41.33
2017-12-02T11:33:36.136Z,40.00
2017-12-02T11:36:03.050Z,39.67
2017-12-02T11:38:30.719Z,39.88
2017-12-02T11:40:57.625Z,38.80
2017-12-02T11:43:24.461Z,37.33
2017-12-02T11:45:52.042Z,33.00
2017-12-02T11:48:19.632Z,34.78
2017-12-02T11:50:46.449Z,33.25
2017-12-02T11:53:13.300Z,34.47
2017-12-02T11:55:40.148Z,33.28
2017-12-02T11:58:06.974Z,35.40
2017-12-02T12:00:33.823Z,32.60
2017-12-02T12:03:01.428Z,32.42
2017-12-02T12:05:28.302Z,33.47
2017-12-02T12:07:55.146Z,30.45
2017-12-02T12:10:21.973Z,32.20
2017-12-02T12:12:49.542Z,31.25
2017-12-02T12:15:16.349Z,29.67
2017-12-02T12:17:43.180Z,30.08
2017-12-02T12:20:10.001Z,29.83
2017-12-02T12:22:36.853Z,31.70
2017-12-02T12:25:03.724Z,29.45
2017-12-02T12:27:30.608Z,26.52
2017-12-02T12:29:57.415Z,27.83
2017-12-02T12:32:24.271Z,30.40
2017-12-02T12:34:51.115Z,28.65
2017-12-02T12:37:18.731Z,29.33
2017-12-02T12:39:45.575Z,27.98
2017-12-02T12:42:12.421Z,28.10
2017-12-02T12:44:39.281Z,27.25
2017-12-02T12:47:06.143Z,26.45
2017-12-02T12:49:33.008Z,28.00
2017-12-02T12:51:59.868Z,26.05
2017-12-02T12:54:26.762Z,27.00
2017-12-02T12:56:53.616Z,25.83
2017-12-02T12:59:20.524Z,25.48
2017-12-02T13:01:47.416Z,26.90
2017-12-02T13:04:14.296Z,27.77
2017-12-02T13:06:41.132Z,23.58
2017-12-02T13:09:07.962Z,25.30
2017-12-02T13:11:34.760Z,23.42
2017-12-02T13:14:01.642Z,26.77
2017-12-02T13:16:28.514Z,28.50
2017-12-02T13:18:55.351Z,27.77
2017-12-02T13:21:22.246Z,29.58
2017-12-02T13:23:49.059Z,28.38
2017-12-02T13:26:15.885Z,28.40
2017-12-02T13:28:42.711Z,29.70
2017-12-02T13:31:09.539Z,30.02
2017-12-02T13:33:36.412Z,26.80
2017-12-02T13:36:03.304Z,26.77
2017-12-02T13:38:30.190Z,28.55
2017-12-02T13:40:57.057Z,27.45
2017-12-02T13:43:23.923Z,26.27
2017-12-02T13:45:50.793Z,26.02
2017-12-02T13:48:18.364Z,32.42
2017-12-02T13:50:45.205Z,29.30
2017-12-02T13:53:12.103Z,29.50
2017-12-02T13:55:39.713Z,28.98
2017-12-02T13:58:06.595Z,29.33
2017-12-02T14:00:33.734Z,32.75
2017-12-02T14:03:00.608Z,31.92
2017-12-02T14:05:27.494Z,30.42
2017-12-02T14:07:54.434Z,34.40
2017-12-02T14:10:21.329Z,32.03
2017-12-02T14:12:48.164Z,31.27
2017-12-02T14:15:14.988Z,32.50
2017-12-02T14:17:41.843Z,28.70
2017-12-02T14:20:09.412Z,32.47
2017-12-02T14:22:36.982Z,35.30
2017-12-02T14:25:03.846Z,31.77
2017-12-02T14:27:30.646Z,30.62
2017-12-02T14:29:57.467Z,29.23
2017-12-02T14:32:24.301Z,32.72
2017-12-02T14:34:51.100Z,30.62
2017-12-02T14:37:17.989Z,28.62
2017-12-02T14:39:44.834Z,33.95
2017-12-02T14:42:11.675Z,35.25
2017-12-02T14:44:39.256Z,33.17
2017-12-02T14:47:06.819Z,33.25
2017-12-02T14:49:33.616Z,29.42
2017-12-02T14:52:00.476Z,34.95
2017-12-02T14:54:27.308Z,31.70
2017-12-02T14:56:54.154Z,33.40
2017-12-02T14:59:20.957Z,29.20
2017-12-02T15:01:47.847Z,30.42
2017-12-02T15:04:14.740Z,31.42
2017-12-02T15:06:41.549Z,33.33
2017-12-02T15:09:08.398Z,31.33
2017-12-02T15:11:35.256Z,52.10
2017-12-02T15:14:02.142Z,36.08
2017-12-02T15:16:28.980Z,32.03
2017-12-02T15:18:55.810Z,31.60
2017-12-02T15:21:22.654Z,31.65
2017-12-02T15:23:49.516Z,34.05
2017-12-02T15:26:16.334Z,30.58
2017-12-02T15:28:43.336Z,29.35
2017-12-02T15:31:10.162Z,25.40
2017-12-02T15:33:36.995Z,29.98
2017-12-02T15:36:04.640Z,33.38
2017-12-02T15:38:31.549Z,31.02
2017-12-02T15:40:59.211Z,30.30
2017-12-02T15:43:26.082Z,27.48
2017-12-02T15:45:53.801Z,29.67
2017-12-02T15:48:20.822Z,31.12
2017-12-02T15:50:48.401Z,29.85
2017-12-02T15:53:15.318Z,28.17
2017-12-02T15:55:42.269Z,27.33
2017-12-02T15:58:09.170Z,26.58
2017-12-02T16:00:36.091Z,30.40
2017-12-02T16:03:02.973Z,30.35
2017-12-02T16:05:29.846Z,31.40
2017-12-02T16:07:56.764Z,28.10
2017-12-02T16:10:23.633Z,29.33
2017-12-02T16:12:50.553Z,29.12
2017-12-02T16:15:17.544Z,30.40
2017-12-02T16:17:44.427Z,29.35
2017-12-02T16:20:11.305Z,27.02
2017-12-02T16:22:38.323Z,25.05
2017-12-02T16:25:05.936Z,25.35
2017-12-02T16:27:32.780Z,26.77
2017-12-02T16:29:59.743Z,25.33
2017-12-02T16:32:26.623Z,24.65
2017-12-02T16:34:53.481Z,22.25
2017-12-02T16:37:20.411Z,35.33
2017-12-02T16:39:48.101Z,32.38
2017-12-02T16:42:14.936Z,26.10
2017-12-02T16:44:41.862Z,25.20
2017-12-02T16:47:08.715Z,27.65
2017-12-02T16:49:35.605Z,23.58
2017-12-02T16:52:02.554Z,23.27
2017-12-02T16:54:29.548Z,23.80
2017-12-02T16:56:56.458Z,23.20
2017-12-02T16:59:23.365Z,27.17
2017-12-02T17:01:50.311Z,26.05
2017-12-02T17:04:17.246Z,24.37
2017-12-02T17:06:44.161Z,38.20
2017-12-02T17:09:11.354Z,32.97
2017-12-02T17:11:38.996Z,62.95
2017-12-02T17:14:05.928Z,34.45
2017-12-02T17:16:32.816Z,43.90
2017-12-02T17:18:59.731Z,28.60
2017-12-02T17:21:26.638Z,29.87
2017-12-02T17:23:53.567Z,27.65
2017-12-02T17:26:20.462Z,26.17
2017-12-02T17:28:48.237Z,28.48
2017-12-02T17:31:15.091Z,33.67
2017-12-02T17:33:41.974Z,26.40
2017-12-02T17:36:08.824Z,37.90
2017-12-02T17:38:35.984Z,27.42
2017-12-02T17:41:02.939Z,28.45
2017-12-02T17:43:29.868Z,29.40
2017-12-02T17:45:56.842Z,27.17
2017-12-02T17:48:25.164Z,25.60
2017-12-02T17:50:52.039Z,38.50
2017-12-02T17:53:18.893Z,27.95
2017-12-02T17:55:45.750Z,28.35
2017-12-02T17:58:14.460Z,28.75
2017-12-02T18:00:41.633Z,26.83
2017-12-02T18:03:08.534Z,25.37
2017-12-02T18:05:35.398Z,29.50
2017-12-02T18:08:02.238Z,26.87
2017-12-02T18:10:29.098Z,35.45
2017-12-02T18:12:55.976Z,31.45
2017-12-02T18:15:22.880Z,43.85
2017-12-02T18:17:50.090Z,51.28
2017-12-02T18:22:44.370Z,38.22
2017-12-02T18:25:11.960Z,34.65
2017-12-02T18:27:38.942Z,38.78
2017-12-02T18:30:05.828Z,34.75
2017-12-02T18:32:33.225Z,46.58
2017-12-02T18:35:00.202Z,33.53
2017-12-02T18:37:27.803Z,53.45
2017-12-02T18:39:54.840Z,35.50
2017-12-02T18:42:21.786Z,33.15
2017-12-02T18:44:48.652Z,40.38
2017-12-02T18:47:16.223Z,54.25
2017-12-02T18:49:43.042Z,37.15
2017-12-02T18:52:09.866Z,30.92
2017-12-02T18:54:36.776Z,31.92
2017-12-02T18:57:03.685Z,24.65
2017-12-02T18:59:30.530Z,32.55
2017-12-02T19:01:57.371Z,27.27
2017-12-02T19:04:24.888Z,28.05
2017-12-02T19:06:52.345Z,30.08
2017-12-02T19:09:20.132Z,32.95
2017-12-02T19:11:47.022Z,30.37
2017-12-02T19:14:14.687Z,31.05
2017-12-02T19:16:42.087Z,42.00
2017-12-02T19:19:08.973Z,30.60
2017-12-02T19:21:36.604Z,30.52
2017-12-02T19:24:03.847Z,31.58
2017-12-02T19:26:31.449Z,29.00
2017-12-02T19:28:59.084Z,28.15
2017-12-02T19:31:29.055Z,29.75
2017-12-02T19:33:55.940Z,29.95
2017-12-02T19:36:23.295Z,28.05
2017-12-02T19:38:50.387Z,29.08
2017-12-02T19:41:19.717Z,29.75
2017-12-02T19:43:48.144Z,29.55
2017-12-02T19:46:16.495Z,30.00
2017-12-02T19:48:46.159Z,33.05
2017-12-02T19:51:14.150Z,29.15
2017-12-02T19:53:42.945Z,29.77
2017-12-02T19:56:13.495Z,29.12
2017-12-02T19:58:41.691Z,31.25
2017-12-02T20:01:10.512Z,31.27
2017-12-02T20:03:39.545Z,30.58
2017-12-02T20:06:08.377Z,28.20
2017-12-02T20:08:37.570Z,28.40
2017-12-02T20:11:05.376Z,28.02
2017-12-02T20:13:33.126Z,29.60
2017-12-02T20:16:00.339Z,29.12
2017-12-02T20:18:28.543Z,35.95
2017-12-02T20:20:57.746Z,33.53
2017-12-02T20:23:26.590Z,31.25
2017-12-02T20:25:54.784Z,28.87
2017-12-02T20:28:23.165Z,29.90
2017-12-02T20:30:52.002Z,28.50
2017-12-02T20:33:20.563Z,30.12
2017-12-02T20:35:50.288Z,33.70
2017-12-02T20:38:18.462Z,33.42
2017-12-02T20:40:47.291Z,31.35
2017-12-02T20:43:17.068Z,30.23
2017-12-02T20:45:45.966Z,31.33
2017-12-02T20:48:15.004Z,30.20
2017-12-02T20:50:44.682Z,31.92
2017-12-02T20:53:13.641Z,42.83
2017-12-02T20:55:42.537Z,35.45
2017-12-02T20:58:11.331Z,39.85
2017-12-02T21:00:40.276Z,39.58
2017-12-02T21:03:08.899Z,52.58
2017-12-02T21:05:37.542Z,34.30
2017-12-02T21:08:05.001Z,47.08
2017-12-02T21:10:33.333Z,31.00
2017-12-02T21:13:00.271Z,31.02
2017-12-02T21:15:28.318Z,32.20
2017-12-02T21:17:55.827Z,31.08
2017-12-02T21:20:22.846Z,31.40
2017-12-02T21:22:49.991Z,30.40
2017-12-02T21:25:19.407Z,30.67
2017-12-02T21:27:47.293Z,31.67
2017-12-02T21:30:15.929Z,31.15
2017-12-02T21:32:43.633Z,32.67
2017-12-02T21:35:11.472Z,34.08
2017-12-02T21:37:39.309Z,31.55
2017-12-02T21:40:07.744Z,29.20
2017-12-02T21:42:36.035Z,31.55
2017-12-02T21:45:04.431Z,32.45
2017-12-02T21:47:32.631Z,31.27
2017-12-02T21:49:59.795Z,32.25
2017-12-02T21:52:28.042Z,31.83
2017-12-02T21:54:55.245Z,33.60
2017-12-02T21:57:22.164Z,31.55
2017-12-02T21:59:49.058Z,31.95
2017-12-02T22:02:16.095Z,30.65
2017-12-02T22:04:43.112Z,30.23
2017-12-02T22:07:10.324Z,35.67
2017-12-02T22:09:37.245Z,28.42
2017-12-02T22:12:04.104Z,32.50
2017-12-02T22:14:30.968Z,31.05
2017-12-02T22:16:57.939Z,34.03
2017-12-02T22:19:24.826Z,33.63
2017-12-02T22:21:52.212Z,35.05
2017-12-02T22:24:19.659Z,31.15
2017-12-02T22:26:46.732Z,30.75
2017-12-02T22:29:13.658Z,29.42
2017-12-02T22:31:41.364Z,30.50
2017-12-02T22:34:09.292Z,32.63
2017-12-02T22:36:36.383Z,28.50
2017-12-02T22:39:03.330Z,39.10
2017-12-02T22:41:30.184Z,32.40
2017-12-02T22:43:57.088Z,29.92
2017-12-02T22:46:23.969Z,30.02
2017-12-02T22:48:51.587Z,31.37
2017-12-02T22:51:18.551Z,33.70
2017-12-02T22:53:45.526Z,34.63
2017-12-02T22:56:12.438Z,31.37
2017-12-02T22:58:40.158Z,33.53
2017-12-02T23:01:07.062Z,34.28
2017-12-02T23:03:34.493Z,31.40
2017-12-02T23:06:01.472Z,32.42
2017-12-02T23:08:28.377Z,30.80
2017-12-02T23:10:55.981Z,30.30
2017-12-02T23:13:22.878Z,32.47
2017-12-02T23:15:49.806Z,33.55
2017-12-02T23:18:17.217Z,32.78
2017-12-02T23:20:44.192Z,31.52
2017-12-02T23:23:11.053Z,32.70
2017-12-02T23:25:38.816Z,31.52
2017-12-02T23:28:05.668Z,30.35
2017-12-02T23:30:32.553Z,34.90
2017-12-02T23:32:59.437Z,33.97
2017-12-02T23:35:26.298Z,34.28
2017-12-02T23:37:53.139Z,30.95
2017-12-02T23:40:19.999Z,31.27
2017-12-02T23:42:46.899Z,31.17
2017-12-02T23:45:14.482Z,32.40
2017-12-02T23:47:42.397Z,29.17
2017-12-02T23:50:09.276Z,31.30
2017-12-02T23:52:37.902Z,31.33
2017-12-02T23:55:04.902Z,31.40
2017-12-02T23:57:31.866Z,32.20
2017-12-02T23:59:59.513Z,31.80
